createdAt,value
2017-02-06T00:01:04.238Z,2.26
2017-02-06T00:02:13.326Z,2.36
2017-02-06T00:03:22.424Z,2.36
2017-02-06T00:04:31.109Z,2.3
2017-02-06T00:05:40.190Z,2.23
2017-02-06T00:06:48.898Z,2.21
2017-02-06T00:07:57.590Z,2.22
2017-02-06T00:09:06.272Z,2.14
2017-02-06T00:10:14.980Z,2.19
2017-02-06T00:11:23.673Z,2.14
2017-02-06T00:12:32.361Z,2.19
2017-02-06T00:13:41.056Z,2.16
2017-02-06T00:14:49.760Z,2.22
2017-02-06T00:15:58.858Z,2.16
2017-02-06T00:17:07.552Z,2.19
2017-02-06T00:18:16.254Z,2.16
2017-02-06T00:19:24.937Z,2.1
2017-02-06T00:20:33.625Z,2.08
2017-02-06T00:21:43.133Z,2.03
2017-02-06T00:22:51.853Z,2.04
2017-02-06T00:24:00.531Z,2.05
2017-02-06T00:25:09.629Z,2.07
2017-02-06T00:26:18.716Z,2.05
2017-02-06T00:27:27.793Z,1.95
2017-02-06T00:28:36.492Z,2
2017-02-06T00:29:45.581Z,1.97
2017-02-06T00:30:54.299Z,1.93
2017-02-06T00:32:03.027Z,1.98
2017-02-06T00:33:12.105Z,1.93
2017-02-06T00:34:20.804Z,1.93
2017-02-06T00:35:29.888Z,1.98
2017-02-06T00:36:39.351Z,1.93
2017-02-06T00:37:48.061Z,1.98
2017-02-06T00:38:57.154Z,1.97
2017-02-06T00:40:05.837Z,1.98
2017-02-06T00:41:14.532Z,1.93
2017-02-06T00:42:23.626Z,1.93
2017-02-06T00:43:32.316Z,1.95
2017-02-06T00:44:41.003Z,1.97
2017-02-06T00:45:49.678Z,1.93
2017-02-06T00:46:58.782Z,1.92
2017-02-06T00:48:07.469Z,2
2017-02-06T00:49:16.550Z,1.84
2017-02-06T00:50:25.640Z,1.95
2017-02-06T00:51:34.358Z,1.93
2017-02-06T00:52:43.029Z,1.95
2017-02-06T00:53:51.714Z,1.93
2017-02-06T00:55:00.415Z,1.75
2017-02-06T00:56:09.100Z,1.89
2017-02-06T00:57:17.794Z,1.81
2017-02-06T00:58:26.871Z,1.79
2017-02-06T00:59:35.562Z,1.79
2017-02-06T01:00:44.658Z,1.76
2017-02-06T01:01:53.340Z,1.71
2017-02-06T01:03:02.030Z,1.67
2017-02-06T01:04:10.735Z,1.66
2017-02-06T01:05:19.421Z,1.68
2017-02-06T01:06:28.106Z,1.61
2017-02-06T01:07:37.207Z,1.63
2017-02-06T01:08:46.290Z,1.63
2017-02-06T01:09:54.981Z,1.6
2017-02-06T01:11:03.683Z,1.56
2017-02-06T01:12:12.375Z,1.58
2017-02-06T01:13:21.454Z,1.6
2017-02-06T01:14:30.155Z,1.49
2017-02-06T01:15:39.236Z,1.56
2017-02-06T01:16:47.918Z,1.53
2017-02-06T01:17:57.012Z,1.56
2017-02-06T01:19:05.708Z,1.56
2017-02-06T01:20:14.774Z,1.43
2017-02-06T01:21:23.868Z,1.42
2017-02-06T01:22:32.576Z,1.42
2017-02-06T01:23:41.253Z,1.42
2017-02-06T01:24:49.940Z,1.43
2017-02-06T01:25:58.643Z,1.42
2017-02-06T01:27:07.327Z,1.43
2017-02-06T01:28:16.419Z,1.49
2017-02-06T01:29:25.094Z,1.45
2017-02-06T01:30:33.793Z,1.4
2017-02-06T01:31:42.489Z,1.42
2017-02-06T01:32:51.165Z,1.46
2017-02-06T01:33:59.855Z,1.45
2017-02-06T01:35:08.567Z,1.48
2017-02-06T01:36:17.246Z,1.56
2017-02-06T01:37:25.926Z,1.43
2017-02-06T01:38:34.635Z,1.5
2017-02-06T01:39:43.729Z,1.53
2017-02-06T01:40:52.412Z,1.6
2017-02-06T01:42:01.503Z,1.56
2017-02-06T01:43:10.581Z,1.6
2017-02-06T01:44:19.698Z,1.63
2017-02-06T01:45:28.379Z,1.61
2017-02-06T01:46:37.463Z,1.6
2017-02-06T01:47:46.163Z,1.63
2017-02-06T01:48:54.845Z,1.71
2017-02-06T01:50:03.522Z,1.75
2017-02-06T01:51:12.629Z,1.74
2017-02-06T01:52:21.344Z,1.81
2017-02-06T01:53:30.409Z,1.79
2017-02-06T01:54:39.104Z,1.78
2017-02-06T01:55:48.187Z,1.89
2017-02-06T01:56:57.278Z,1.86
2017-02-06T01:58:05.967Z,1.86
2017-02-06T01:59:14.634Z,1.85
2017-02-06T02:00:23.341Z,1.84
2017-02-06T02:01:32.039Z,1.88
2017-02-06T02:02:40.722Z,1.88
2017-02-06T02:03:49.425Z,1.89
2017-02-06T02:04:58.125Z,1.82
2017-02-06T02:06:07.192Z,1.92
2017-02-06T02:07:15.885Z,1.89
2017-02-06T02:08:24.590Z,1.84
2017-02-06T02:09:33.271Z,1.85
2017-02-06T02:10:41.960Z,1.78
2017-02-06T02:11:50.652Z,1.84
2017-02-06T02:12:59.345Z,1.92
2017-02-06T02:14:08.039Z,2
2017-02-06T02:15:17.115Z,1.95
2017-02-06T02:16:26.203Z,1.93
2017-02-06T02:17:34.906Z,1.93
2017-02-06T02:18:43.581Z,2.03
2017-02-06T02:19:52.574Z,2
2017-02-06T02:21:01.278Z,2.01
2017-02-06T02:22:09.966Z,2.01
2017-02-06T02:23:18.646Z,2.04
2017-02-06T02:24:27.354Z,2.03
2017-02-06T02:25:36.045Z,2.07
2017-02-06T02:26:44.740Z,2.03
2017-02-06T02:27:53.467Z,2.07
2017-02-06T02:29:02.161Z,2.16
2017-02-06T02:30:11.261Z,2.18
2017-02-06T02:31:19.985Z,2.14
2017-02-06T02:32:29.067Z,2.18
2017-02-06T02:33:38.563Z,2.25
2017-02-06T02:34:47.647Z,2.28
2017-02-06T02:35:56.324Z,2.25
2017-02-06T02:37:05.018Z,2.26
2017-02-06T02:38:13.709Z,2.28
2017-02-06T02:39:22.379Z,2.32
2017-02-06T02:40:31.477Z,2.37
2017-02-06T02:41:40.165Z,2.36
2017-02-06T02:42:49.255Z,2.34
2017-02-06T02:43:58.329Z,2.4
2017-02-06T02:45:07.408Z,2.43
2017-02-06T02:46:16.110Z,2.51
2017-02-06T02:47:24.808Z,2.47
2017-02-06T02:48:33.483Z,2.52
2017-02-06T02:49:42.579Z,2.54
2017-02-06T02:50:51.678Z,2.5
2017-02-06T02:52:00.357Z,2.55
2017-02-06T02:53:09.050Z,2.54
2017-02-06T02:54:17.760Z,2.52
2017-02-06T02:55:26.843Z,2.54
2017-02-06T02:56:35.928Z,2.58
2017-02-06T02:57:44.610Z,2.54
2017-02-06T02:58:53.712Z,2.61
2017-02-06T03:00:02.808Z,2.61
2017-02-06T03:01:11.876Z,2.62
2017-02-06T03:02:20.569Z,2.68
2017-02-06T03:03:29.272Z,2.64
2017-02-06T03:04:37.950Z,2.62
2017-02-06T03:05:46.636Z,2.68
2017-02-06T03:06:55.743Z,2.58
2017-02-06T03:08:04.430Z,2.62
2017-02-06T03:09:13.504Z,2.58
2017-02-06T03:10:22.202Z,2.75
2017-02-06T03:11:30.889Z,2.75
2017-02-06T03:12:39.571Z,2.7
2017-02-06T03:13:48.670Z,2.77
2017-02-06T03:14:57.759Z,2.73
2017-02-06T03:16:06.443Z,2.75
2017-02-06T03:17:15.540Z,2.69
2017-02-06T03:18:24.636Z,2.76
2017-02-06T03:19:33.317Z,2.72
2017-02-06T03:20:42.048Z,2.7
2017-02-06T03:21:51.149Z,2.7
2017-02-06T03:22:59.824Z,2.68
2017-02-06T03:24:08.505Z,2.68
2017-02-06T03:25:17.201Z,2.7
2017-02-06T03:26:25.895Z,2.68
2017-02-06T03:27:34.991Z,2.69
2017-02-06T03:28:43.671Z,2.65
2017-02-06T03:29:52.760Z,2.69
2017-02-06T03:31:01.871Z,2.59
2017-02-06T03:32:10.943Z,2.61
2017-02-06T03:33:19.627Z,2.55
2017-02-06T03:34:28.328Z,2.61
2017-02-06T03:35:37.017Z,2.62
2017-02-06T03:36:45.704Z,2.5
2017-02-06T03:37:54.406Z,2.54
2017-02-06T03:39:03.086Z,2.51
2017-02-06T03:40:12.574Z,2.52
2017-02-06T03:41:21.253Z,2.52
2017-02-06T03:42:29.952Z,2.57
2017-02-06T03:43:38.647Z,2.54
2017-02-06T03:44:47.332Z,2.61
2017-02-06T03:45:56.008Z,2.57
2017-02-06T03:47:04.716Z,2.61
2017-02-06T03:48:13.402Z,2.51
2017-02-06T03:49:22.085Z,2.65
2017-02-06T03:50:30.780Z,2.64
2017-02-06T03:51:39.882Z,2.65
2017-02-06T03:52:48.561Z,2.61
2017-02-06T03:53:57.259Z,2.64
2017-02-06T03:55:05.950Z,2.64
2017-02-06T03:56:14.645Z,2.69
2017-02-06T03:57:23.333Z,2.73
2017-02-06T03:58:32.010Z,2.72
2017-02-06T03:59:41.117Z,2.76
2017-02-06T04:00:50.202Z,2.75
2017-02-06T04:01:58.873Z,2.79
2017-02-06T04:03:07.574Z,2.8
2017-02-06T04:04:16.265Z,2.83
2017-02-06T04:05:24.955Z,2.79
2017-02-06T04:06:33.656Z,2.76
2017-02-06T04:07:42.359Z,2.82
2017-02-06T04:08:51.440Z,2.76
2017-02-06T04:10:00.535Z,2.75
2017-02-06T04:11:09.212Z,2.7
2017-02-06T04:12:18.305Z,2.77
2017-02-06T04:13:27.004Z,2.75
2017-02-06T04:14:35.687Z,2.76
2017-02-06T04:15:44.384Z,2.76
2017-02-06T04:16:53.483Z,2.73
2017-02-06T04:18:02.170Z,2.75
2017-02-06T04:19:11.257Z,2.76
2017-02-06T04:20:19.968Z,2.75
2017-02-06T04:21:29.440Z,2.76
2017-02-06T04:22:38.121Z,2.73
2017-02-06T04:23:47.218Z,2.64
2017-02-06T04:24:55.910Z,2.69
2017-02-06T04:26:05.007Z,2.64
2017-02-06T04:27:14.085Z,2.65
2017-02-06T04:28:22.768Z,2.54
2017-02-06T04:29:31.473Z,2.61
2017-02-06T04:30:40.157Z,2.61
2017-02-06T04:31:48.843Z,2.58
2017-02-06T04:32:57.547Z,2.55
2017-02-06T04:34:06.238Z,2.57
2017-02-06T04:35:14.919Z,2.57
2017-02-06T04:36:23.623Z,2.57
2017-02-06T04:37:32.319Z,2.52
2017-02-06T04:38:41.006Z,2.58
2017-02-06T04:39:49.689Z,2.52
2017-02-06T04:40:58.762Z,2.64
2017-02-06T04:42:07.457Z,2.59
2017-02-06T04:43:16.145Z,2.55
2017-02-06T04:44:25.223Z,2.54
2017-02-06T04:45:34.326Z,2.64
2017-02-06T04:46:43.017Z,2.62
2017-02-06T04:47:52.493Z,2.55
2017-02-06T04:49:01.585Z,2.59
2017-02-06T04:50:10.679Z,2.69
2017-02-06T04:51:19.745Z,2.68
2017-02-06T04:52:28.833Z,2.55
2017-02-06T04:53:37.522Z,2.64
2017-02-06T04:54:46.224Z,2.59
2017-02-06T04:55:55.312Z,2.61
2017-02-06T04:57:04.390Z,2.55
2017-02-06T04:58:13.095Z,2.55
2017-02-06T04:59:22.186Z,2.57
2017-02-06T05:00:30.867Z,2.52
2017-02-06T05:01:39.562Z,2.51
2017-02-06T05:02:48.259Z,2.59
2017-02-06T05:03:57.343Z,2.55
2017-02-06T05:05:06.027Z,2.47
2017-02-06T05:06:15.133Z,2.52
2017-02-06T05:07:23.817Z,2.46
2017-02-06T05:08:32.497Z,2.5
2017-02-06T05:09:41.202Z,2.54
2017-02-06T05:10:49.896Z,2.46
2017-02-06T05:11:58.567Z,2.43
2017-02-06T05:13:07.273Z,2.47
2017-02-06T05:14:15.974Z,2.36
2017-02-06T05:15:24.656Z,2.43
2017-02-06T05:16:33.384Z,2.41
2017-02-06T05:17:42.081Z,2.23
2017-02-06T05:18:50.756Z,2.36
2017-02-06T05:19:59.854Z,2.25
2017-02-06T05:21:08.565Z,2.19
2017-02-06T05:22:17.639Z,2.18
2017-02-06T05:23:26.724Z,2.12
2017-02-06T05:24:35.446Z,2.19
2017-02-06T05:25:44.148Z,2.07
2017-02-06T05:26:53.253Z,2.04
2017-02-06T05:28:02.316Z,2
2017-02-06T05:29:11.412Z,1.97
2017-02-06T05:30:20.109Z,1.92
2017-02-06T05:31:28.800Z,2
2017-02-06T05:32:37.488Z,1.88
2017-02-06T05:33:46.194Z,2.08
2017-02-06T05:34:54.877Z,1.93
2017-02-06T05:36:03.560Z,2.05
2017-02-06T05:37:12.653Z,2
2017-02-06T05:38:21.343Z,1.92
2017-02-06T05:39:30.053Z,1.95
2017-02-06T05:40:39.129Z,1.95
2017-02-06T05:41:47.816Z,1.95
2017-02-06T05:42:56.917Z,2.05
2017-02-06T05:44:05.608Z,2.01
2017-02-06T05:45:14.298Z,2
2017-02-06T05:46:23.001Z,2.05
2017-02-06T05:47:31.685Z,2.12
2017-02-06T05:48:41.151Z,2.15
2017-02-06T05:49:49.857Z,2.12
2017-02-06T05:50:58.556Z,2.16
2017-02-06T05:52:07.251Z,2.21
2017-02-06T05:53:15.933Z,2.16
2017-02-06T05:54:25.018Z,2.21
2017-02-06T05:55:34.116Z,2.32
2017-02-06T05:56:43.201Z,2.36
2017-02-06T05:57:51.877Z,2.33
2017-02-06T05:59:00.972Z,2.28
2017-02-06T06:00:09.662Z,2.34
2017-02-06T06:01:18.743Z,2.34
2017-02-06T06:02:27.844Z,2.36
2017-02-06T06:03:36.548Z,2.39
2017-02-06T06:04:45.619Z,2.37
2017-02-06T06:05:54.306Z,2.39
2017-02-06T06:07:03.806Z,2.41
2017-02-06T06:08:12.514Z,2.4
2017-02-06T06:09:21.645Z,2.43
2017-02-06T06:10:30.721Z,2.37
2017-02-06T06:11:39.409Z,2.33
2017-02-06T06:12:48.104Z,2.37
2017-02-06T06:13:56.783Z,2.47
2017-02-06T06:15:05.875Z,2.4
2017-02-06T06:16:14.585Z,2.39
2017-02-06T06:17:23.651Z,2.32
2017-02-06T06:18:32.336Z,2.33
2017-02-06T06:19:41.042Z,2.34
2017-02-06T06:20:50.178Z,2.36
2017-02-06T06:21:58.876Z,2.33
2017-02-06T06:23:07.946Z,2.26
2017-02-06T06:24:16.644Z,2.34
2017-02-06T06:25:25.741Z,2.37
2017-02-06T06:26:34.854Z,2.41
2017-02-06T06:27:43.549Z,2.32
2017-02-06T06:28:53.051Z,2.43
2017-02-06T06:30:01.739Z,2.41
2017-02-06T06:31:10.419Z,2.52
2017-02-06T06:32:19.561Z,2.51
2017-02-06T06:33:28.245Z,2.5
2017-02-06T06:34:36.923Z,2.47
2017-02-06T06:35:45.621Z,2.55
2017-02-06T06:36:54.706Z,2.58
2017-02-06T06:38:03.417Z,2.5
2017-02-06T06:39:12.102Z,2.58
2017-02-06T06:40:20.794Z,2.55
2017-02-06T06:41:29.896Z,2.57
2017-02-06T06:42:38.582Z,2.65
2017-02-06T06:43:47.265Z,2.61
2017-02-06T06:44:56.370Z,2.64
2017-02-06T06:46:05.066Z,2.62
2017-02-06T06:47:14.143Z,2.61
2017-02-06T06:48:23.230Z,2.76
2017-02-06T06:49:31.935Z,2.68
2017-02-06T06:50:40.630Z,2.7
2017-02-06T06:51:49.317Z,2.7
2017-02-06T06:52:57.992Z,2.75
2017-02-06T06:54:07.097Z,2.75
2017-02-06T06:55:15.789Z,2.7
2017-02-06T06:56:24.474Z,2.79
2017-02-06T06:57:33.174Z,2.73
2017-02-06T06:58:42.273Z,2.79
2017-02-06T06:59:51.347Z,2.72
2017-02-06T07:01:00.035Z,2.76
2017-02-06T07:02:09.143Z,2.8
2017-02-06T07:03:17.823Z,2.77
2017-02-06T07:04:26.910Z,2.82
2017-02-06T07:05:35.620Z,2.77
2017-02-06T07:06:44.298Z,2.85
2017-02-06T07:07:52.978Z,2.9
2017-02-06T07:09:01.682Z,2.79
2017-02-06T07:10:10.772Z,2.88
2017-02-06T07:11:19.468Z,2.94
2017-02-06T07:12:28.164Z,2.98
2017-02-06T07:13:36.861Z,2.91
2017-02-06T07:14:45.933Z,2.97
2017-02-06T07:15:55.034Z,2.91
2017-02-06T07:17:04.527Z,2.95
2017-02-06T07:18:13.211Z,2.98
2017-02-06T07:19:21.904Z,2.93
2017-02-06T07:20:30.980Z,3.06
2017-02-06T07:21:39.692Z,3
2017-02-06T07:22:48.783Z,2.97
2017-02-06T07:23:57.468Z,3.15
2017-02-06T07:25:06.171Z,3.11
2017-02-06T07:26:15.262Z,3.03
2017-02-06T07:27:23.941Z,3.13
2017-02-06T07:28:32.636Z,3.11
2017-02-06T07:29:41.333Z,3.19
2017-02-06T07:30:52.998Z,3.16
2017-02-06T07:32:07.030Z,3.11
2017-02-06T07:33:16.207Z,3.05
2017-02-06T07:34:24.895Z,3.12
2017-02-06T07:35:33.596Z,3.15
2017-02-06T07:36:42.278Z,3.18
2017-02-06T07:37:50.973Z,3.13
2017-02-06T07:38:59.674Z,3.16
2017-02-06T07:40:08.357Z,3.22
2017-02-06T07:41:17.049Z,3.27
2017-02-06T07:42:25.745Z,3.3
2017-02-06T07:43:34.821Z,3.26
2017-02-06T07:44:43.516Z,3.27
2017-02-06T07:45:52.219Z,3.24
2017-02-06T07:47:00.916Z,3.19
2017-02-06T07:48:09.598Z,3.27
2017-02-06T07:49:18.689Z,3.37
2017-02-06T07:50:27.371Z,3.33
2017-02-06T07:51:36.079Z,3.37
2017-02-06T07:52:45.166Z,3.4
2017-02-06T07:53:53.854Z,3.45
2017-02-06T07:55:02.946Z,3.36
2017-02-06T07:56:11.642Z,3.52
2017-02-06T07:57:20.325Z,3.53
2017-02-06T07:58:29.032Z,3.61
2017-02-06T07:59:37.730Z,3.66
2017-02-06T08:00:46.809Z,3.71
2017-02-06T08:01:55.511Z,3.77
2017-02-06T08:03:04.203Z,3.68
2017-02-06T08:04:12.893Z,3.7
2017-02-06T08:05:21.588Z,3.71
2017-02-06T08:06:30.272Z,3.76
2017-02-06T08:07:38.989Z,3.73
2017-02-06T08:08:47.685Z,3.7
2017-02-06T08:09:56.367Z,3.74
2017-02-06T08:11:05.059Z,3.82
2017-02-06T08:12:15.657Z,3.81
2017-02-06T08:13:30.094Z,3.89
2017-02-06T08:14:45.037Z,3.85
2017-02-06T08:15:58.990Z,3.86
2017-02-06T08:17:16.847Z,3.88
2017-02-06T08:18:30.671Z,3.96
2017-02-06T08:19:44.502Z,3.95
2017-02-06T08:20:58.553Z,4.06
2017-02-06T08:22:13.156Z,4.09
2017-02-06T08:23:27.626Z,4.07
2017-02-06T08:24:42.159Z,4.1
2017-02-06T08:25:57.303Z,4.13
2017-02-06T08:27:10.675Z,4.22
2017-02-06T08:28:22.653Z,4.27
2017-02-06T08:29:33.763Z,4.31
2017-02-06T08:30:45.467Z,4.31
2017-02-06T08:31:56.686Z,4.39
2017-02-06T08:33:08.164Z,4.3
2017-02-06T08:34:20.607Z,4.43
2017-02-06T08:35:31.094Z,4.4
2017-02-06T08:36:43.090Z,4.46
2017-02-06T08:37:54.933Z,4.46
2017-02-06T08:39:05.452Z,4.5
2017-02-06T08:40:16.459Z,4.56
2017-02-06T08:41:28.486Z,4.57
2017-02-06T08:42:40.599Z,4.63
2017-02-06T08:43:50.447Z,4.64
2017-02-06T08:44:59.616Z,4.64
2017-02-06T08:46:10.383Z,4.67
2017-02-06T08:47:20.652Z,4.66
2017-02-06T08:48:29.327Z,4.84
2017-02-06T08:49:38.430Z,4.84
2017-02-06T08:50:47.121Z,4.82
2017-02-06T08:51:56.222Z,4.76
2017-02-06T08:53:05.418Z,4.84
2017-02-06T08:54:14.102Z,4.83
2017-02-06T08:55:22.806Z,4.94
2017-02-06T08:56:31.501Z,4.92
2017-02-06T08:57:40.188Z,4.94
2017-02-06T08:58:48.888Z,4.97
2017-02-06T08:59:57.586Z,4.98
2017-02-06T09:01:06.270Z,5
2017-02-06T09:02:14.968Z,5.02
2017-02-06T09:03:23.682Z,5
2017-02-06T09:04:32.370Z,5.05
2017-02-06T09:05:41.465Z,5.1
2017-02-06T09:06:50.167Z,5.13
2017-02-06T09:07:58.848Z,5.1
2017-02-06T09:09:07.530Z,5.18
2017-02-06T09:10:16.234Z,5.19
2017-02-06T09:11:24.925Z,5.16
2017-02-06T09:12:33.609Z,5.18
2017-02-06T09:13:42.315Z,5.19
2017-02-06T09:14:51.011Z,5.18
2017-02-06T09:15:59.691Z,5.28
2017-02-06T09:17:08.399Z,5.34
2017-02-06T09:18:17.111Z,5.28
2017-02-06T09:19:26.192Z,5.33
2017-02-06T09:20:34.889Z,5.36
2017-02-06T09:21:43.963Z,5.36
2017-02-06T09:22:52.673Z,5.29
2017-02-06T09:24:01.367Z,5.36
2017-02-06T09:25:10.046Z,5.4
2017-02-06T09:26:18.751Z,5.41
2017-02-06T09:27:27.449Z,5.4
2017-02-06T09:28:36.144Z,5.43
2017-02-06T09:29:45.232Z,5.36
2017-02-06T09:30:53.942Z,5.4
2017-02-06T09:32:02.619Z,5.36
2017-02-06T09:33:11.702Z,5.36
2017-02-06T09:34:20.396Z,5.46
2017-02-06T09:35:29.100Z,5.41
2017-02-06T09:36:38.197Z,5.41
2017-02-06T09:37:47.270Z,5.51
2017-02-06T09:38:56.361Z,5.37
2017-02-06T09:40:05.464Z,5.46
2017-02-06T09:41:14.142Z,5.52
2017-02-06T09:42:22.836Z,5.47
2017-02-06T09:43:31.531Z,5.4
2017-02-06T09:44:40.225Z,5.41
2017-02-06T09:45:49.425Z,5.46
2017-02-06T09:46:58.528Z,5.33
2017-02-06T09:48:07.222Z,5.29
2017-02-06T09:49:16.329Z,5.31
2017-02-06T09:50:25.407Z,5.37
2017-02-06T09:51:34.488Z,5.34
2017-02-06T09:52:43.192Z,5.33
2017-02-06T09:53:52.272Z,5.28
2017-02-06T09:55:00.970Z,5.19
2017-02-06T09:56:09.674Z,5.31
2017-02-06T09:57:18.387Z,5.31
2017-02-06T09:58:27.478Z,5.37
2017-02-06T09:59:36.575Z,5.33
2017-02-06T10:00:45.675Z,5.36
2017-02-06T10:01:54.777Z,5.37
2017-02-06T10:03:03.948Z,5.43
2017-02-06T10:04:12.719Z,5.4
2017-02-06T10:05:21.433Z,5.4
2017-02-06T10:06:30.130Z,5.43
2017-02-06T10:07:38.814Z,5.51
2017-02-06T10:08:47.908Z,5.49
2017-02-06T10:09:56.602Z,5.54
2017-02-06T10:11:05.293Z,5.54
2017-02-06T10:12:13.997Z,5.54
2017-02-06T10:13:22.699Z,5.54
2017-02-06T10:14:31.380Z,5.51
2017-02-06T10:15:40.475Z,5.54
2017-02-06T10:16:49.580Z,5.65
2017-02-06T10:17:58.272Z,5.64
2017-02-06T10:19:06.971Z,5.64
2017-02-06T10:20:15.649Z,5.59
2017-02-06T10:21:24.768Z,5.55
2017-02-06T10:22:33.465Z,5.65
2017-02-06T10:23:42.551Z,5.65
2017-02-06T10:24:51.242Z,5.74
2017-02-06T10:26:00.347Z,5.83
2017-02-06T10:27:09.028Z,5.87
2017-02-06T10:28:17.721Z,5.8
2017-02-06T10:29:26.825Z,5.87
2017-02-06T10:30:35.521Z,5.81
2017-02-06T10:31:44.202Z,5.91
2017-02-06T10:32:53.294Z,5.87
2017-02-06T10:34:01.991Z,5.91
2017-02-06T10:35:11.497Z,5.87
2017-02-06T10:36:20.546Z,5.97
2017-02-06T10:37:29.671Z,5.91
2017-02-06T10:38:38.367Z,5.87
2017-02-06T10:39:47.451Z,5.94
2017-02-06T10:40:56.556Z,6.01
2017-02-06T10:42:05.664Z,5.98
2017-02-06T10:43:14.800Z,5.98
2017-02-06T10:44:23.483Z,6.16
2017-02-06T10:45:32.190Z,6.09
2017-02-06T10:46:40.892Z,6.16
2017-02-06T10:47:49.981Z,6.13
2017-02-06T10:48:58.666Z,6.09
2017-02-06T10:50:07.347Z,6.1
2017-02-06T10:51:16.059Z,6.1
2017-02-06T10:52:24.755Z,6.09
2017-02-06T10:53:33.445Z,6.07
2017-02-06T10:54:42.148Z,6.15
2017-02-06T10:55:50.851Z,6.12
2017-02-06T10:57:00.317Z,6.09
2017-02-06T10:58:09.716Z,6.07
2017-02-06T10:59:19.839Z,6.02
2017-02-06T11:00:29.089Z,6.05
2017-02-06T11:01:39.218Z,6.05
2017-02-06T11:02:48.441Z,6.06
2017-02-06T11:03:58.101Z,6.05
2017-02-06T11:05:07.747Z,6.1
2017-02-06T11:06:17.463Z,6.07
2017-02-06T11:07:27.154Z,6.09
2017-02-06T11:08:35.849Z,6.15
2017-02-06T11:09:44.950Z,6.25
2017-02-06T11:10:53.649Z,6.29
2017-02-06T11:12:02.337Z,6.26
2017-02-06T11:13:11.045Z,6.31
2017-02-06T11:14:20.136Z,6.25
2017-02-06T11:15:28.829Z,6.26
2017-02-06T11:16:38.326Z,6.26
2017-02-06T11:17:47.011Z,6.29
2017-02-06T11:18:55.723Z,6.32
2017-02-06T11:20:04.804Z,6.2
2017-02-06T11:21:13.889Z,6.31
2017-02-06T11:22:23.112Z,6.38
2017-02-06T11:23:31.818Z,6.35
2017-02-06T11:24:40.498Z,6.36
2017-02-06T11:25:49.205Z,6.28
2017-02-06T11:26:58.106Z,6.26
2017-02-06T11:28:07.189Z,6.35
2017-02-06T11:29:15.887Z,6.26
2017-02-06T11:30:24.593Z,6.25
2017-02-06T11:31:33.287Z,6.28
2017-02-06T11:32:41.992Z,6.29
2017-02-06T11:33:51.064Z,6.26
2017-02-06T11:34:59.765Z,6.25
2017-02-06T11:36:08.857Z,6.2
2017-02-06T11:37:17.548Z,6.2
2017-02-06T11:38:26.253Z,6.25
2017-02-06T11:39:34.956Z,6.13
2017-02-06T11:40:43.640Z,6.2
2017-02-06T11:41:52.344Z,6.26
2017-02-06T11:43:01.848Z,6.22
2017-02-06T11:44:10.537Z,6.22
2017-02-06T11:45:19.224Z,6.16
2017-02-06T11:46:27.918Z,6.15
2017-02-06T11:47:36.611Z,6.12
2017-02-06T11:48:45.325Z,6.05
2017-02-06T11:49:54.011Z,6.13
2017-02-06T11:51:02.746Z,6.07
2017-02-06T11:52:11.453Z,6.02
2017-02-06T11:53:20.154Z,6.07
2017-02-06T11:54:28.846Z,6.12
2017-02-06T11:55:37.563Z,6.06
2017-02-06T11:56:46.256Z,6.07
2017-02-06T11:57:55.340Z,6.13
2017-02-06T11:59:04.060Z,6.12
2017-02-06T12:00:12.759Z,6.15
2017-02-06T12:01:21.459Z,6.17
2017-02-06T12:02:30.546Z,6.2
2017-02-06T12:03:39.232Z,6.25
2017-02-06T12:04:47.933Z,6.25
2017-02-06T12:05:57.028Z,6.25
2017-02-06T12:07:06.118Z,6.28
2017-02-06T12:08:14.823Z,6.2
2017-02-06T12:09:23.518Z,6.1
2017-02-06T12:10:32.198Z,6.02
2017-02-06T12:11:40.907Z,6.02
2017-02-06T12:12:50.459Z,6.01
2017-02-06T12:13:59.148Z,6.07
2017-02-06T12:15:07.881Z,6.01
2017-02-06T12:16:16.568Z,5.99
2017-02-06T12:17:25.266Z,5.83
2017-02-06T12:18:33.983Z,5.8
2017-02-06T12:19:42.682Z,5.87
2017-02-06T12:20:51.383Z,5.83
2017-02-06T12:22:00.081Z,5.88
2017-02-06T12:23:08.763Z,5.97
2017-02-06T12:24:17.863Z,6.02
2017-02-06T12:25:26.979Z,5.95
2017-02-06T12:26:35.663Z,5.83
2017-02-06T12:27:44.362Z,5.88
2017-02-06T12:28:53.076Z,5.83
2017-02-06T12:30:01.773Z,5.84
2017-02-06T12:31:10.928Z,5.83
2017-02-06T12:32:19.687Z,5.97
2017-02-06T12:33:28.789Z,5.92
2017-02-06T12:34:37.888Z,5.95
2017-02-06T12:35:47.020Z,5.8
2017-02-06T12:36:55.799Z,5.9
2017-02-06T12:38:04.533Z,6.06
2017-02-06T12:39:13.738Z,5.87
2017-02-06T12:40:22.434Z,5.91
2017-02-06T12:41:31.496Z,6.01
2017-02-06T12:42:40.198Z,5.88
2017-02-06T12:43:48.892Z,5.8
2017-02-06T12:44:57.997Z,5.88
2017-02-06T12:46:06.684Z,5.83
2017-02-06T12:47:15.395Z,5.81
2017-02-06T12:48:24.078Z,5.83
2017-02-06T12:49:32.774Z,5.84
2017-02-06T12:50:41.480Z,5.92
2017-02-06T12:51:50.176Z,5.97
2017-02-06T12:52:59.252Z,5.98
2017-02-06T12:54:07.960Z,5.95
2017-02-06T12:55:16.666Z,5.8
2017-02-06T12:56:25.345Z,5.91
2017-02-06T12:57:34.049Z,5.9
2017-02-06T12:58:43.136Z,5.92
2017-02-06T12:59:51.825Z,5.91
2017-02-06T13:01:00.530Z,5.94
2017-02-06T13:02:09.661Z,5.91
2017-02-06T13:03:18.342Z,5.83
2017-02-06T13:04:27.425Z,5.88
2017-02-06T13:05:36.949Z,5.81
2017-02-06T13:06:46.050Z,5.83
2017-02-06T13:07:54.779Z,5.91
2017-02-06T13:09:03.890Z,5.83
2017-02-06T13:10:12.587Z,5.83
2017-02-06T13:11:21.277Z,5.8
2017-02-06T13:12:30.375Z,5.87
2017-02-06T13:13:39.082Z,5.87
2017-02-06T13:14:48.175Z,5.88
2017-02-06T13:15:56.865Z,5.77
2017-02-06T13:17:05.942Z,5.77
2017-02-06T13:18:14.651Z,5.79
2017-02-06T13:19:23.388Z,5.77
2017-02-06T13:20:32.072Z,5.77
2017-02-06T13:21:40.777Z,5.72
2017-02-06T13:22:50.266Z,5.67
2017-02-06T13:23:58.953Z,5.67
2017-02-06T13:25:08.463Z,5.62
2017-02-06T13:26:17.163Z,5.62
2017-02-06T13:27:25.861Z,5.79
2017-02-06T13:28:35.347Z,5.76
2017-02-06T13:29:44.061Z,5.8
2017-02-06T13:30:53.463Z,5.79
2017-02-06T13:32:02.321Z,5.7
2017-02-06T13:33:11.000Z,5.79
2017-02-06T13:34:19.708Z,5.74
2017-02-06T13:35:28.402Z,5.74
2017-02-06T13:36:37.093Z,5.76
2017-02-06T13:37:45.790Z,5.76
2017-02-06T13:38:55.333Z,5.69
2017-02-06T13:40:04.408Z,5.72
2017-02-06T13:41:13.106Z,5.69
2017-02-06T13:42:21.809Z,5.67
2017-02-06T13:43:30.500Z,5.69
2017-02-06T13:44:39.205Z,5.67
2017-02-06T13:45:47.880Z,5.79
2017-02-06T13:46:57.376Z,5.79
2017-02-06T13:48:06.475Z,5.83
2017-02-06T13:49:15.550Z,5.81
2017-02-06T13:50:24.240Z,5.73
2017-02-06T13:51:32.951Z,5.61
2017-02-06T13:52:41.637Z,5.77
2017-02-06T13:53:50.318Z,5.69
2017-02-06T13:54:59.433Z,5.73
2017-02-06T13:56:08.915Z,5.8
2017-02-06T13:57:17.606Z,5.8
2017-02-06T13:58:26.718Z,5.73
2017-02-06T13:59:35.413Z,5.67
2017-02-06T14:00:44.511Z,5.65
2017-02-06T14:01:53.207Z,5.76
2017-02-06T14:03:01.889Z,5.77
2017-02-06T14:04:10.602Z,5.76
2017-02-06T14:05:19.687Z,5.74
2017-02-06T14:06:28.374Z,5.74
2017-02-06T14:07:37.078Z,5.69
2017-02-06T14:08:45.781Z,5.69
2017-02-06T14:09:54.471Z,5.67
2017-02-06T14:11:03.185Z,5.64
2017-02-06T14:12:11.889Z,5.61
2017-02-06T14:13:20.576Z,5.61
2017-02-06T14:14:29.684Z,5.69
2017-02-06T14:15:38.414Z,5.67
2017-02-06T14:16:47.118Z,5.72
2017-02-06T14:17:55.823Z,5.76
2017-02-06T14:19:04.501Z,5.83
2017-02-06T14:20:13.208Z,5.8
2017-02-06T14:21:21.908Z,5.88
2017-02-06T14:22:30.597Z,5.9
2017-02-06T14:23:39.681Z,5.88
2017-02-06T14:24:48.786Z,5.83
2017-02-06T14:25:57.463Z,5.92
2017-02-06T14:27:06.153Z,5.98
2017-02-06T14:28:14.852Z,5.97
2017-02-06T14:29:23.554Z,5.99
2017-02-06T14:30:32.252Z,5.97
2017-02-06T14:31:40.940Z,5.99
2017-02-06T14:32:50.032Z,5.98
2017-02-06T14:33:59.142Z,5.99
2017-02-06T14:35:07.822Z,5.94
2017-02-06T14:36:16.511Z,5.88
2017-02-06T14:37:25.219Z,5.91
2017-02-06T14:38:33.910Z,5.98
2017-02-06T14:39:42.598Z,5.92
2017-02-06T14:40:51.311Z,5.9
2017-02-06T14:41:59.997Z,5.94
2017-02-06T14:43:09.087Z,5.81
2017-02-06T14:44:17.772Z,5.8
2017-02-06T14:45:27.329Z,5.79
2017-02-06T14:46:36.033Z,5.84
2017-02-06T14:47:45.515Z,5.8
2017-02-06T14:48:54.193Z,5.81
2017-02-06T14:50:02.911Z,5.81
2017-02-06T14:51:11.598Z,5.87
2017-02-06T14:52:20.283Z,5.81
2017-02-06T14:53:28.992Z,5.83
2017-02-06T14:54:38.086Z,5.83
2017-02-06T14:55:47.159Z,5.83
2017-02-06T14:56:55.869Z,5.83
2017-02-06T14:58:04.571Z,5.84
2017-02-06T14:59:13.262Z,5.81
2017-02-06T15:00:21.955Z,5.87
2017-02-06T15:01:30.667Z,5.77
2017-02-06T15:02:39.347Z,5.79
2017-02-06T15:03:48.045Z,5.73
2017-02-06T15:04:57.151Z,5.79
2017-02-06T15:06:05.857Z,5.81
2017-02-06T15:07:14.549Z,5.83
2017-02-06T15:08:23.262Z,5.87
2017-02-06T15:09:31.959Z,5.88
2017-02-06T15:10:40.643Z,5.84
2017-02-06T15:11:49.345Z,5.81
2017-02-06T15:12:58.034Z,5.84
2017-02-06T15:14:06.737Z,5.81
2017-02-06T15:15:15.425Z,5.91
2017-02-06T15:16:24.903Z,5.81
2017-02-06T15:17:34.014Z,5.77
2017-02-06T15:18:43.104Z,5.79
2017-02-06T15:19:51.802Z,5.67
2017-02-06T15:21:00.899Z,5.67
2017-02-06T15:22:09.599Z,5.72